sensor_id;sensor_type;location;lat;lon;timestamp;P1;durP1;ratioP1;P2;durP2;ratioP2
2944;SDS011;1482;51.398;7.128;2023-10-31T00:00:22;4.13;;;3.83;;
2944;SDS011;1482;51.398;7.128;2023-10-31T00:02:48;4.77;;;4.47;;
2944;SDS011;1482;51.398;7.128;2023-10-31T00:05:13;4.97;;;4.67;;
2944;SDS011;1482;51.398;7.128;2023-10-31T00:07:39;4.60;;;4.20;;
2944;SDS011;1482;51.398;7.128;2023-10-31T00:10:05;5.60;;;4.50;;
2944;SDS011;1482;51.398;7.128;2023-10-31T00:12:31;5.70;;;5.17;;
2944;SDS011;1482;51.398;7.128;2023-10-31T00:14:57;5.70;;;5.30;;
2944;SDS011;1482;51.398;7.128;2023-10-31T00:17:22;5.50;;;5.00;;
2944;SDS011;1482;51.398;7.128;2023-10-31T00:19:48;6.10;;;5.60;;
2944;SDS011;1482;51.398;7.128;2023-10-31T00:22:13;6.13;;;5.63;;
2944;SDS011;1482;51.398;7.128;2023-10-31T00:24:39;6.50;;;6.00;;
2944;SDS011;1482;51.398;7.128;2023-10-31T00:27:04;7.20;;;6.60;;
2944;SDS011;1482;51.398;7.128;2023-10-31T00:29:30;6.63;;;5.50;;
2944;SDS011;1482;51.398;7.128;2023-10-31T00:31:56;5.77;;;5.27;;
2944;SDS011;1482;51.398;7.128;2023-10-31T00:34:21;5.80;;;5.40;;
2944;SDS011;1482;51.398;7.128;2023-10-31T00:36:47;5.73;;;5.33;;
2944;SDS011;1482;51.398;7.128;2023-10-31T00:39:12;6.37;;;4.93;;
2944;SDS011;1482;51.398;7.128;2023-10-31T00:41:39;5.17;;;4.87;;
2944;SDS011;1482;51.398;7.128;2023-10-31T00:44:09;5.17;;;4.77;;
2944;SDS011;1482;51.398;7.128;2023-10-31T00:46:35;5.00;;;4.70;;
2944;SDS011;1482;51.398;7.128;2023-10-31T00:49:00;4.93;;;4.63;;
2944;SDS011;1482;51.398;7.128;2023-10-31T00:51:26;4.07;;;3.77;;
2944;SDS011;1482;51.398;7.128;2023-10-31T00:53:51;4.30;;;4.00;;
2944;SDS011;1482;51.398;7.128;2023-10-31T00:56:17;3.90;;;3.60;;
2944;SDS011;1482;51.398;7.128;2023-10-31T00:58:42;4.60;;;4.30;;
2944;SDS011;1482;51.398;7.128;2023-10-31T01:01:08;6.60;;;4.03;;
2944;SDS011;1482;51.398;7.128;2023-10-31T01:03:33;3.80;;;3.50;;
2944;SDS011;1482;51.398;7.128;2023-10-31T01:05:59;4.70;;;3.53;;
2944;SDS011;1482;51.398;7.128;2023-10-31T01:08:24;3.47;;;3.20;;
2944;SDS011;1482;51.398;7.128;2023-10-31T01:10:50;2.70;;;2.50;;
2944;SDS011;1482;51.398;7.128;2023-10-31T01:13:16;3.10;;;2.90;;
2944;SDS011;1482;51.398;7.128;2023-10-31T01:15:41;3.07;;;2.60;;
2944;SDS011;1482;51.398;7.128;2023-10-31T01:18:07;3.30;;;3.10;;
2944;SDS011;1482;51.398;7.128;2023-10-31T01:20:32;3.40;;;3.20;;
2944;SDS011;1482;51.398;7.128;2023-10-31T01:22:58;4.13;;;3.83;;
2944;SDS011;1482;51.398;7.128;2023-10-31T01:25:23;5.47;;;4.97;;
2944;SDS011;1482;51.398;7.128;2023-10-31T01:27:49;7.33;;;6.00;;
2944;SDS011;1482;51.398;7.128;2023-10-31T01:30:14;11.00;;;5.90;;
2944;SDS011;1482;51.398;7.128;2023-10-31T01:32:40;6.73;;;6.17;;
2944;SDS011;1482;51.398;7.128;2023-10-31T01:35:06;8.03;;;7.43;;
2944;SDS011;1482;51.398;7.128;2023-10-31T01:37:31;7.50;;;6.90;;
2944;SDS011;1482;51.398;7.128;2023-10-31T01:39:57;7.87;;;7.20;;
2944;SDS011;1482;51.398;7.128;2023-10-31T01:42:22;6.90;;;6.10;;
2944;SDS011;1482;51.398;7.128;2023-10-31T01:44:48;9.77;;;6.30;;
2944;SDS011;1482;51.398;7.128;2023-10-31T01:47:13;8.00;;;7.30;;
2944;SDS011;1482;51.398;7.128;2023-10-31T01:49:39;7.40;;;6.80;;
2944;SDS011;1482;51.398;7.128;2023-10-31T01:52:05;6.80;;;6.20;;
2944;SDS011;1482;51.398;7.128;2023-10-31T01:54:34;6.63;;;6.07;;
2944;SDS011;1482;51.398;7.128;2023-10-31T01:57:01;6.43;;;5.83;;
2944;SDS011;1482;51.398;7.128;2023-10-31T01:59:29;6.70;;;6.10;;
2944;SDS011;1482;51.398;7.128;2023-10-31T02:01:55;6.00;;;5.33;;
2944;SDS011;1482;51.398;7.128;2023-10-31T02:04:23;6.40;;;5.83;;
2944;SDS011;1482;51.398;7.128;2023-10-31T02:06:49;7.10;;;6.17;;
2944;SDS011;1482;51.398;7.128;2023-10-31T02:09:15;5.20;;;4.83;;
2944;SDS011;1482;51.398;7.128;2023-10-31T02:11:40;7.30;;;5.30;;
2944;SDS011;1482;51.398;7.128;2023-10-31T02:14:06;5.50;;;5.00;;
2944;SDS011;1482;51.398;7.128;2023-10-31T02:16:31;9.60;;;5.70;;
2944;SDS011;1482;51.398;7.128;2023-10-31T02:18:57;5.80;;;5.30;;
2944;SDS011;1482;51.398;7.128;2023-10-31T02:21:23;8.17;;;5.07;;
2944;SDS011;1482;51.398;7.128;2023-10-31T02:24:00;6.20;;;5.40;;
2944;SDS011;1482;51.398;7.128;2023-10-31T02:26:32;4.70;;;4.40;;
2944;SDS011;1482;51.398;7.128;2023-10-31T02:28:59;4.67;;;4.37;;
2944;SDS011;1482;51.398;7.128;2023-10-31T02:31:26;4.83;;;4.53;;
2944;SDS011;1482;51.398;7.128;2023-10-31T02:33:52;8.60;;;5.07;;
2944;SDS011;1482;51.398;7.128;2023-10-31T02:36:18;5.97;;;5.37;;
2944;SDS011;1482;51.398;7.128;2023-10-31T02:38:44;5.70;;;4.63;;
2944;SDS011;1482;51.398;7.128;2023-10-31T02:41:10;4.43;;;4.10;;
2944;SDS011;1482;51.398;7.128;2023-10-31T02:43:37;4.73;;;4.30;;
2944;SDS011;1482;51.398;7.128;2023-10-31T02:46:03;4.20;;;3.73;;
2944;SDS011;1482;51.398;7.128;2023-10-31T02:48:29;4.23;;;3.93;;
2944;SDS011;1482;51.398;7.128;2023-10-31T02:50:56;5.50;;;5.00;;
2944;SDS011;1482;51.398;7.128;2023-10-31T02:53:22;7.87;;;6.00;;
2944;SDS011;1482;51.398;7.128;2023-10-31T02:55:48;12.20;;;7.77;;
2944;SDS011;1482;51.398;7.128;2023-10-31T02:58:14;13.03;;;7.10;;
2944;SDS011;1482;51.398;7.128;2023-10-31T03:00:39;12.97;;;8.03;;
2944;SDS011;1482;51.398;7.128;2023-10-31T03:03:05;12.20;;;8.13;;
2944;SDS011;1482;51.398;7.128;2023-10-31T03:05:30;14.47;;;8.57;;
2944;SDS011;1482;51.398;7.128;2023-10-31T03:07:56;8.97;;;8.07;;
2944;SDS011;1482;51.398;7.128;2023-10-31T03:10:22;9.13;;;8.27;;
2944;SDS011;1482;51.398;7.128;2023-10-31T03:12:47;10.63;;;9.27;;
2944;SDS011;1482;51.398;7.128;2023-10-31T03:15:13;10.70;;;9.57;;
2944;SDS011;1482;51.398;7.128;2023-10-31T03:17:39;11.43;;;9.20;;
2944;SDS011;1482;51.398;7.128;2023-10-31T03:20:05;12.13;;;9.10;;
2944;SDS011;1482;51.398;7.128;2023-10-31T03:22:30;10.33;;;8.43;;
2944;SDS011;1482;51.398;7.128;2023-10-31T03:24:56;11.80;;;9.47;;
2944;SDS011;1482;51.398;7.128;2023-10-31T03:27:22;12.07;;;9.13;;
2944;SDS011;1482;51.398;7.128;2023-10-31T03:29:47;15.20;;;8.67;;
2944;SDS011;1482;51.398;7.128;2023-10-31T03:32:14;11.40;;;10.03;;
2944;SDS011;1482;51.398;7.128;2023-10-31T03:34:39;10.33;;;8.57;;
2944;SDS011;1482;51.398;7.128;2023-10-31T03:37:05;19.47;;;9.40;;
2944;SDS011;1482;51.398;7.128;2023-10-31T03:39:30;14.50;;;9.73;;
2944;SDS011;1482;51.398;7.128;2023-10-31T03:41:56;14.57;;;9.13;;
2944;SDS011;1482;51.398;7.128;2023-10-31T03:44:22;11.70;;;8.20;;
2944;SDS011;1482;51.398;7.128;2023-10-31T03:46:47;8.73;;;7.90;;
2944;SDS011;1482;51.398;7.128;2023-10-31T03:49:13;9.20;;;7.17;;
2944;SDS011;1482;51.398;7.128;2023-10-31T03:51:38;11.63;;;7.93;;
2944;SDS011;1482;51.398;7.128;2023-10-31T03:54:04;10.00;;;7.30;;
2944;SDS011;1482;51.398;7.128;2023-10-31T03:56:29;12.00;;;9.17;;
2944;SDS011;1482;51.398;7.128;2023-10-31T03:58:55;15.10;;;11.07;;
2944;SDS011;1482;51.398;7.128;2023-10-31T04:01:20;15.83;;;11.30;;
2944;SDS011;1482;51.398;7.128;2023-10-31T04:03:46;11.53;;;9.97;;
2944;SDS011;1482;51.398;7.128;2023-10-31T04:06:12;15.40;;;10.60;;
2944;SDS011;1482;51.398;7.128;2023-10-31T04:08:37;12.17;;;10.30;;
2944;SDS011;1482;51.398;7.128;2023-10-31T04:11:03;18.97;;;10.70;;
2944;SDS011;1482;51.398;7.128;2023-10-31T04:13:28;13.63;;;9.63;;
2944;SDS011;1482;51.398;7.128;2023-10-31T04:15:54;13.20;;;10.83;;
2944;SDS011;1482;51.398;7.128;2023-10-31T04:18:19;16.87;;;10.10;;
2944;SDS011;1482;51.398;7.128;2023-10-31T04:20:45;15.83;;;10.10;;
2944;SDS011;1482;51.398;7.128;2023-10-31T04:23:11;21.60;;;11.43;;
2944;SDS011;1482;51.398;7.128;2023-10-31T04:25:37;14.90;;;10.03;;
2944;SDS011;1482;51.398;7.128;2023-10-31T04:28:02;13.50;;;9.63;;
2944;SDS011;1482;51.398;7.128;2023-10-31T04:30:28;12.63;;;9.80;;
2944;SDS011;1482;51.398;7.128;2023-10-31T04:32:53;9.60;;;8.50;;
2944;SDS011;1482;51.398;7.128;2023-10-31T04:35:19;11.73;;;8.90;;
2944;SDS011;1482;51.398;7.128;2023-10-31T04:37:45;9.57;;;7.80;;
2944;SDS011;1482;51.398;7.128;2023-10-31T04:40:10;16.00;;;9.53;;
2944;SDS011;1482;51.398;7.128;2023-10-31T04:42:38;12.77;;;9.30;;
2944;SDS011;1482;51.398;7.128;2023-10-31T04:45:05;9.37;;;7.27;;
2944;SDS011;1482;51.398;7.128;2023-10-31T04:47:31;9.30;;;8.17;;
2944;SDS011;1482;51.398;7.128;2023-10-31T04:49:56;14.70;;;9.23;;
2944;SDS011;1482;51.398;7.128;2023-10-31T04:52:22;11.13;;;8.23;;
2944;SDS011;1482;51.398;7.128;2023-10-31T04:54:47;11.13;;;9.00;;
2944;SDS011;1482;51.398;7.128;2023-10-31T04:57:13;13.00;;;8.60;;
2944;SDS011;1482;51.398;7.128;2023-10-31T04:59:38;9.50;;;8.50;;
2944;SDS011;1482;51.398;7.128;2023-10-31T05:02:04;9.00;;;8.07;;
2944;SDS011;1482;51.398;7.128;2023-10-31T05:04:29;11.03;;;8.27;;
2944;SDS011;1482;51.398;7.128;2023-10-31T05:06:55;8.60;;;7.37;;
2944;SDS011;1482;51.398;7.128;2023-10-31T05:09:21;10.17;;;8.10;;
2944;SDS011;1482;51.398;7.128;2023-10-31T05:11:48;16.50;;;11.73;;
2944;SDS011;1482;51.398;7.128;2023-10-31T05:14:13;15.63;;;13.03;;
2944;SDS011;1482;51.398;7.128;2023-10-31T05:16:42;19.77;;;14.40;;
2944;SDS011;1482;51.398;7.128;2023-10-31T05:19:08;12.60;;;10.87;;
2944;SDS011;1482;51.398;7.128;2023-10-31T05:21:34;12.23;;;8.93;;
2944;SDS011;1482;51.398;7.128;2023-10-31T05:24:00;13.40;;;9.23;;
2944;SDS011;1482;51.398;7.128;2023-10-31T05:26:25;13.20;;;9.37;;
2944;SDS011;1482;51.398;7.128;2023-10-31T05:28:52;14.73;;;9.50;;
2944;SDS011;1482;51.398;7.128;2023-10-31T05:31:18;15.50;;;9.80;;
2944;SDS011;1482;51.398;7.128;2023-10-31T05:33:44;15.53;;;11.80;;
2944;SDS011;1482;51.398;7.128;2023-10-31T05:36:20;14.40;;;10.73;;
2944;SDS011;1482;51.398;7.128;2023-10-31T05:38:46;17.53;;;12.37;;
2944;SDS011;1482;51.398;7.128;2023-10-31T05:41:12;16.47;;;11.10;;
2944;SDS011;1482;51.398;7.128;2023-10-31T05:43:38;13.20;;;10.50;;
2944;SDS011;1482;51.398;7.128;2023-10-31T05:46:03;14.37;;;10.83;;
2944;SDS011;1482;51.398;7.128;2023-10-31T05:48:30;17.17;;;11.57;;
2944;SDS011;1482;51.398;7.128;2023-10-31T05:50:56;14.13;;;10.53;;
2944;SDS011;1482;51.398;7.128;2023-10-31T05:53:22;15.50;;;11.07;;
2944;SDS011;1482;51.398;7.128;2023-10-31T05:55:47;14.50;;;10.93;;
2944;SDS011;1482;51.398;7.128;2023-10-31T05:58:13;23.50;;;11.30;;
2944;SDS011;1482;51.398;7.128;2023-10-31T06:00:38;20.60;;;13.40;;
2944;SDS011;1482;51.398;7.128;2023-10-31T06:03:04;21.40;;;13.17;;
2944;SDS011;1482;51.398;7.128;2023-10-31T06:05:29;16.00;;;13.10;;
2944;SDS011;1482;51.398;7.128;2023-10-31T06:07:55;18.37;;;12.77;;
2944;SDS011;1482;51.398;7.128;2023-10-31T06:10:21;24.67;;;13.47;;
2944;SDS011;1482;51.398;7.128;2023-10-31T06:12:46;23.53;;;13.67;;
2944;SDS011;1482;51.398;7.128;2023-10-31T06:15:12;21.00;;;14.37;;
2944;SDS011;1482;51.398;7.128;2023-10-31T06:17:38;19.97;;;13.13;;
2944;SDS011;1482;51.398;7.128;2023-10-31T06:20:04;20.53;;;13.53;;
2944;SDS011;1482;51.398;7.128;2023-10-31T06:22:32;18.67;;;12.70;;
2944;SDS011;1482;51.398;7.128;2023-10-31T06:24:57;18.80;;;13.37;;
2944;SDS011;1482;51.398;7.128;2023-10-31T06:27:23;20.80;;;13.87;;
2944;SDS011;1482;51.398;7.128;2023-10-31T06:29:48;15.80;;;12.37;;
2944;SDS011;1482;51.398;7.128;2023-10-31T06:32:14;14.73;;;11.93;;
2944;SDS011;1482;51.398;7.128;2023-10-31T06:34:40;17.53;;;13.77;;
2944;SDS011;1482;51.398;7.128;2023-10-31T06:37:05;17.40;;;13.00;;
2944;SDS011;1482;51.398;7.128;2023-10-31T06:39:31;17.13;;;12.50;;
2944;SDS011;1482;51.398;7.128;2023-10-31T06:41:57;10.73;;;9.63;;
2944;SDS011;1482;51.398;7.128;2023-10-31T06:44:23;15.00;;;11.70;;
2944;SDS011;1482;51.398;7.128;2023-10-31T06:46:48;13.17;;;10.80;;
2944;SDS011;1482;51.398;7.128;2023-10-31T06:49:14;15.10;;;11.40;;
2944;SDS011;1482;51.398;7.128;2023-10-31T06:51:40;14.30;;;11.23;;
2944;SDS011;1482;51.398;7.128;2023-10-31T06:54:06;14.73;;;10.50;;
2944;SDS011;1482;51.398;7.128;2023-10-31T06:56:31;11.60;;;10.40;;
2944;SDS011;1482;51.398;7.128;2023-10-31T06:58:57;13.50;;;11.67;;
2944;SDS011;1482;51.398;7.128;2023-10-31T07:01:22;12.13;;;10.80;;
2944;SDS011;1482;51.398;7.128;2023-10-31T07:03:48;11.90;;;10.20;;
2944;SDS011;1482;51.398;7.128;2023-10-31T07:06:14;13.27;;;10.30;;
2944;SDS011;1482;51.398;7.128;2023-10-31T07:08:39;15.90;;;11.87;;
2944;SDS011;1482;51.398;7.128;2023-10-31T07:11:05;20.10;;;10.93;;
2944;SDS011;1482;51.398;7.128;2023-10-31T07:13:30;11.53;;;9.27;;
2944;SDS011;1482;51.398;7.128;2023-10-31T07:15:56;11.83;;;9.70;;
2944;SDS011;1482;51.398;7.128;2023-10-31T07:18:21;11.80;;;10.50;;
2944;SDS011;1482;51.398;7.128;2023-10-31T07:20:47;8.70;;;7.90;;
2944;SDS011;1482;51.398;7.128;2023-10-31T07:23:12;9.70;;;8.30;;
2944;SDS011;1482;51.398;7.128;2023-10-31T07:25:38;10.10;;;9.10;;
2944;SDS011;1482;51.398;7.128;2023-10-31T07:28:04;9.57;;;8.57;;
2944;SDS011;1482;51.398;7.128;2023-10-31T07:30:29;11.63;;;9.57;;
2944;SDS011;1482;51.398;7.128;2023-10-31T07:32:55;13.97;;;9.53;;
2944;SDS011;1482;51.398;7.128;2023-10-31T07:35:21;13.53;;;9.80;;
2944;SDS011;1482;51.398;7.128;2023-10-31T07:37:46;11.53;;;10.33;;
2944;SDS011;1482;51.398;7.128;2023-10-31T07:40:12;15.10;;;11.87;;
2944;SDS011;1482;51.398;7.128;2023-10-31T07:42:38;14.03;;;10.70;;
2944;SDS011;1482;51.398;7.128;2023-10-31T07:45:03;11.53;;;10.23;;
2944;SDS011;1482;51.398;7.128;2023-10-31T07:47:29;15.07;;;10.67;;
2944;SDS011;1482;51.398;7.128;2023-10-31T07:49:55;11.43;;;10.23;;
2944;SDS011;1482;51.398;7.128;2023-10-31T07:52:20;13.70;;;10.90;;
2944;SDS011;1482;51.398;7.128;2023-10-31T07:54:46;12.20;;;10.63;;
2944;SDS011;1482;51.398;7.128;2023-10-31T07:57:11;12.67;;;11.33;;
2944;SDS011;1482;51.398;7.128;2023-10-31T07:59:37;12.50;;;11.20;;
2944;SDS011;1482;51.398;7.128;2023-10-31T08:02:02;13.13;;;11.83;;
2944;SDS011;1482;51.398;7.128;2023-10-31T08:04:29;14.70;;;10.80;;
2944;SDS011;1482;51.398;7.128;2023-10-31T08:06:55;11.83;;;10.57;;
2944;SDS011;1482;51.398;7.128;2023-10-31T08:09:20;13.23;;;11.93;;
2944;SDS011;1482;51.398;7.128;2023-10-31T08:11:46;13.03;;;11.60;;
2944;SDS011;1482;51.398;7.128;2023-10-31T08:14:11;12.77;;;11.00;;
2944;SDS011;1482;51.398;7.128;2023-10-31T08:16:37;12.33;;;10.90;;
2944;SDS011;1482;51.398;7.128;2023-10-31T08:19:03;11.87;;;10.70;;
2944;SDS011;1482;51.398;7.128;2023-10-31T08:21:29;13.93;;;12.53;;
2944;SDS011;1482;51.398;7.128;2023-10-31T08:23:59;13.83;;;10.80;;
2944;SDS011;1482;51.398;7.128;2023-10-31T08:26:25;9.83;;;8.87;;
2944;SDS011;1482;51.398;7.128;2023-10-31T08:28:50;11.70;;;10.60;;
2944;SDS011;1482;51.398;7.128;2023-10-31T08:31:16;11.80;;;10.50;;
2944;SDS011;1482;51.398;7.128;2023-10-31T08:33:42;11.63;;;10.43;;
2944;SDS011;1482;51.398;7.128;2023-10-31T08:36:08;11.30;;;10.20;;
2944;SDS011;1482;51.398;7.128;2023-10-31T08:38:33;14.70;;;11.07;;
2944;SDS011;1482;51.398;7.128;2023-10-31T08:40:59;11.53;;;10.43;;
2944;SDS011;1482;51.398;7.128;2023-10-31T08:43:25;11.80;;;9.87;;
2944;SDS011;1482;51.398;7.128;2023-10-31T08:45:51;9.97;;;9.07;;
2944;SDS011;1482;51.398;7.128;2023-10-31T08:48:17;19.00;;;10.17;;
2944;SDS011;1482;51.398;7.128;2023-10-31T08:50:42;9.90;;;8.90;;
2944;SDS011;1482;51.398;7.128;2023-10-31T08:53:08;11.80;;;9.37;;
2944;SDS011;1482;51.398;7.128;2023-10-31T08:55:34;9.13;;;8.23;;
2944;SDS011;1482;51.398;7.128;2023-10-31T08:58:00;10.10;;;9.10;;
2944;SDS011;1482;51.398;7.128;2023-10-31T09:00:25;10.27;;;7.20;;
2944;SDS011;1482;51.398;7.128;2023-10-31T09:02:53;10.53;;;7.90;;
2944;SDS011;1482;51.398;7.128;2023-10-31T09:05:18;8.00;;;7.20;;
2944;SDS011;1482;51.398;7.128;2023-10-31T09:07:44;13.03;;;6.17;;
2944;SDS011;1482;51.398;7.128;2023-10-31T09:10:11;8.10;;;6.60;;
2944;SDS011;1482;51.398;7.128;2023-10-31T09:12:37;7.83;;;7.23;;
2944;SDS011;1482;51.398;7.128;2023-10-31T09:15:03;6.57;;;6.07;;
2944;SDS011;1482;51.398;7.128;2023-10-31T09:17:29;6.67;;;5.90;;
2944;SDS011;1482;51.398;7.128;2023-10-31T09:19:54;6.23;;;5.73;;
2944;SDS011;1482;51.398;7.128;2023-10-31T09:22:20;6.67;;;5.97;;
2944;SDS011;1482;51.398;7.128;2023-10-31T09:24:45;7.43;;;6.13;;
2944;SDS011;1482;51.398;7.128;2023-10-31T09:27:11;7.60;;;6.83;;
2944;SDS011;1482;51.398;7.128;2023-10-31T09:29:36;6.97;;;6.27;;
2944;SDS011;1482;51.398;7.128;2023-10-31T09:32:03;8.00;;;7.10;;
2944;SDS011;1482;51.398;7.128;2023-10-31T09:34:30;10.13;;;5.73;;
2944;SDS011;1482;51.398;7.128;2023-10-31T09:36:56;6.20;;;5.70;;
2944;SDS011;1482;51.398;7.128;2023-10-31T09:39:21;7.23;;;5.53;;
2944;SDS011;1482;51.398;7.128;2023-10-31T09:41:48;7.07;;;6.00;;
2944;SDS011;1482;51.398;7.128;2023-10-31T09:44:13;6.83;;;6.23;;
2944;SDS011;1482;51.398;7.128;2023-10-31T09:46:39;5.90;;;5.30;;
2944;SDS011;1482;51.398;7.128;2023-10-31T09:49:05;4.63;;;4.33;;
2944;SDS011;1482;51.398;7.128;2023-10-31T09:51:33;5.03;;;4.50;;
2944;SDS011;1482;51.398;7.128;2023-10-31T09:53:58;5.83;;;5.33;;
2944;SDS011;1482;51.398;7.128;2023-10-31T09:56:26;6.00;;;5.50;;
2944;SDS011;1482;51.398;7.128;2023-10-31T09:58:59;6.03;;;5.43;;
2944;SDS011;1482;51.398;7.128;2023-10-31T10:01:25;10.70;;;5.90;;
2944;SDS011;1482;51.398;7.128;2023-10-31T10:03:51;7.73;;;5.93;;
2944;SDS011;1482;51.398;7.128;2023-10-31T10:06:17;6.60;;;5.90;;
2944;SDS011;1482;51.398;7.128;2023-10-31T10:08:46;6.10;;;5.57;;
2944;SDS011;1482;51.398;7.128;2023-10-31T10:11:11;7.37;;;5.87;;
2944;SDS011;1482;51.398;7.128;2023-10-31T10:13:37;7.53;;;6.83;;
2944;SDS011;1482;51.398;7.128;2023-10-31T10:16:03;6.67;;;5.90;;
2944;SDS011;1482;51.398;7.128;2023-10-31T10:18:32;10.57;;;6.70;;
2944;SDS011;1482;51.398;7.128;2023-10-31T10:21:05;11.13;;;7.20;;
2944;SDS011;1482;51.398;7.128;2023-10-31T10:23:31;7.90;;;6.50;;
2944;SDS011;1482;51.398;7.128;2023-10-31T10:25:58;9.73;;;7.90;;
2944;SDS011;1482;51.398;7.128;2023-10-31T10:28:24;9.93;;;6.70;;
2944;SDS011;1482;51.398;7.128;2023-10-31T10:30:51;15.83;;;7.13;;
2944;SDS011;1482;51.398;7.128;2023-10-31T10:33:19;24.93;;;7.83;;
2944;SDS011;1482;51.398;7.128;2023-10-31T10:35:45;8.87;;;6.53;;
2944;SDS011;1482;51.398;7.128;2023-10-31T10:38:20;10.40;;;6.87;;
2944;SDS011;1482;51.398;7.128;2023-10-31T10:40:47;7.97;;;6.90;;
2944;SDS011;1482;51.398;7.128;2023-10-31T10:43:20;8.73;;;6.90;;
2944;SDS011;1482;51.398;7.128;2023-10-31T10:45:51;8.43;;;7.67;;
2944;SDS011;1482;51.398;7.128;2023-10-31T10:48:20;7.90;;;7.10;;
2944;SDS011;1482;51.398;7.128;2023-10-31T10:50:48;8.03;;;7.33;;
2944;SDS011;1482;51.398;7.128;2023-10-31T10:53:24;8.07;;;7.27;;
2944;SDS011;1482;51.398;7.128;2023-10-31T10:55:52;10.93;;;6.93;;
2944;SDS011;1482;51.398;7.128;2023-10-31T10:58:37;7.63;;;6.50;;
2944;SDS011;1482;51.398;7.128;2023-10-31T11:01:17;11.50;;;6.83;;
2944;SDS011;1482;51.398;7.128;2023-10-31T11:03:45;12.57;;;7.07;;
2944;SDS011;1482;51.398;7.128;2023-10-31T11:06:11;7.13;;;6.27;;
2944;SDS011;1482;51.398;7.128;2023-10-31T11:08:38;7.50;;;6.10;;
2944;SDS011;1482;51.398;7.128;2023-10-31T11:11:05;8.50;;;6.07;;
2944;SDS011;1482;51.398;7.128;2023-10-31T11:13:31;5.40;;;5.00;;
2944;SDS011;1482;51.398;7.128;2023-10-31T11:15:57;6.67;;;5.57;;
2944;SDS011;1482;51.398;7.128;2023-10-31T11:18:29;7.20;;;5.77;;
2944;SDS011;1482;51.398;7.128;2023-10-31T11:20:55;7.83;;;4.93;;
2944;SDS011;1482;51.398;7.128;2023-10-31T11:23:21;6.33;;;5.60;;
2944;SDS011;1482;51.398;7.128;2023-10-31T11:25:48;5.23;;;4.83;;
2944;SDS011;1482;51.398;7.128;2023-10-31T11:28:16;3.87;;;3.57;;
2944;SDS011;1482;51.398;7.128;2023-10-31T11:30:45;14.77;;;6.63;;
2944;SDS011;1482;51.398;7.128;2023-10-31T11:33:14;10.20;;;6.20;;
2944;SDS011;1482;51.398;7.128;2023-10-31T11:35:40;6.40;;;4.93;;
2944;SDS011;1482;51.398;7.128;2023-10-31T11:38:10;5.47;;;3.83;;
2944;SDS011;1482;51.398;7.128;2023-10-31T11:43:14;5.13;;;3.43;;
2944;SDS011;1482;51.398;7.128;2023-10-31T11:45:40;6.10;;;3.80;;
2944;SDS011;1482;51.398;7.128;2023-10-31T11:48:12;4.33;;;3.10;;
2944;SDS011;1482;51.398;7.128;2023-10-31T11:50:37;7.20;;;3.07;;
2944;SDS011;1482;51.398;7.128;2023-10-31T11:53:07;5.00;;;3.00;;
2944;SDS011;1482;51.398;7.128;2023-10-31T11:55:46;5.20;;;2.77;;
2944;SDS011;1482;51.398;7.128;2023-10-31T11:58:24;4.53;;;2.63;;
2944;SDS011;1482;51.398;7.128;2023-10-31T12:01:02;2.97;;;2.40;;
2944;SDS011;1482;51.398;7.128;2023-10-31T12:03:36;5.10;;;3.80;;
2944;SDS011;1482;51.398;7.128;2023-10-31T12:06:04;7.13;;;3.13;;
2944;SDS011;1482;51.398;7.128;2023-10-31T12:08:31;5.37;;;3.07;;
2944;SDS011;1482;51.398;7.128;2023-10-31T12:14:02;8.33;;;2.07;;
2944;SDS011;1482;51.398;7.128;2023-10-31T12:16:30;7.43;;;3.37;;
2944;SDS011;1482;51.398;7.128;2023-10-31T12:19:03;6.40;;;2.33;;
2944;SDS011;1482;51.398;7.128;2023-10-31T12:21:48;5.87;;;3.07;;
2944;SDS011;1482;51.398;7.128;2023-10-31T12:24:15;3.60;;;2.27;;
2944;SDS011;1482;51.398;7.128;2023-10-31T12:26:42;3.90;;;2.60;;
2944;SDS011;1482;51.398;7.128;2023-10-31T12:29:13;4.63;;;2.50;;
2944;SDS011;1482;51.398;7.128;2023-10-31T12:31:53;3.30;;;2.80;;
2944;SDS011;1482;51.398;7.128;2023-10-31T12:34:20;8.83;;;2.57;;
2944;SDS011;1482;51.398;7.128;2023-10-31T12:36:47;3.07;;;2.10;;
2944;SDS011;1482;51.398;7.128;2023-10-31T12:39:15;3.37;;;2.40;;
2944;SDS011;1482;51.398;7.128;2023-10-31T12:41:42;4.80;;;2.73;;
2944;SDS011;1482;51.398;7.128;2023-10-31T12:44:09;4.63;;;2.33;;
2944;SDS011;1482;51.398;7.128;2023-10-31T12:46:37;3.37;;;2.20;;
2944;SDS011;1482;51.398;7.128;2023-10-31T12:49:04;7.10;;;3.77;;
2944;SDS011;1482;51.398;7.128;2023-10-31T12:51:37;3.20;;;2.33;;
2944;SDS011;1482;51.398;7.128;2023-10-31T12:54:03;5.73;;;3.00;;
2944;SDS011;1482;51.398;7.128;2023-10-31T12:56:36;10.43;;;2.83;;
2944;SDS011;1482;51.398;7.128;2023-10-31T12:59:07;6.50;;;2.50;;
2944;SDS011;1482;51.398;7.128;2023-10-31T13:01:42;2.77;;;2.17;;
2944;SDS011;1482;51.398;7.128;2023-10-31T13:04:08;5.10;;;2.63;;
2944;SDS011;1482;51.398;7.128;2023-10-31T13:06:34;3.10;;;2.73;;
2944;SDS011;1482;51.398;7.128;2023-10-31T13:09:00;4.10;;;2.20;;
2944;SDS011;1482;51.398;7.128;2023-10-31T13:11:30;13.03;;;3.20;;
2944;SDS011;1482;51.398;7.128;2023-10-31T13:13:57;6.63;;;2.30;;
2944;SDS011;1482;51.398;7.128;2023-10-31T13:16:23;6.90;;;2.60;;
2944;SDS011;1482;51.398;7.128;2023-10-31T13:18:51;4.90;;;2.13;;
2944;SDS011;1482;51.398;7.128;2023-10-31T13:21:17;7.73;;;2.60;;
2944;SDS011;1482;51.398;7.128;2023-10-31T13:23:43;6.50;;;2.60;;
2944;SDS011;1482;51.398;7.128;2023-10-31T13:26:11;7.40;;;3.03;;
2944;SDS011;1482;51.398;7.128;2023-10-31T13:28:37;8.20;;;2.37;;
2944;SDS011;1482;51.398;7.128;2023-10-31T13:31:04;3.03;;;2.20;;
2944;SDS011;1482;51.398;7.128;2023-10-31T13:33:30;3.77;;;2.37;;
2944;SDS011;1482;51.398;7.128;2023-10-31T13:35:56;3.83;;;2.30;;
2944;SDS011;1482;51.398;7.128;2023-10-31T13:38:21;2.50;;;2.30;;
2944;SDS011;1482;51.398;7.128;2023-10-31T13:40:47;2.57;;;2.37;;
2944;SDS011;1482;51.398;7.128;2023-10-31T13:43:13;3.00;;;2.30;;
2944;SDS011;1482;51.398;7.128;2023-10-31T13:45:38;3.63;;;2.20;;
2944;SDS011;1482;51.398;7.128;2023-10-31T13:48:04;3.23;;;2.27;;
2944;SDS011;1482;51.398;7.128;2023-10-31T13:50:29;6.80;;;2.77;;
2944;SDS011;1482;51.398;7.128;2023-10-31T13:52:55;4.60;;;2.03;;
2944;SDS011;1482;51.398;7.128;2023-10-31T13:55:21;3.57;;;2.50;;
2944;SDS011;1482;51.398;7.128;2023-10-31T13:57:48;2.60;;;2.40;;
2944;SDS011;1482;51.398;7.128;2023-10-31T14:00:14;2.27;;;2.07;;
2944;SDS011;1482;51.398;7.128;2023-10-31T14:02:40;5.00;;;2.60;;
2944;SDS011;1482;51.398;7.128;2023-10-31T14:05:06;3.90;;;2.80;;
2944;SDS011;1482;51.398;7.128;2023-10-31T14:07:32;4.53;;;2.27;;
2944;SDS011;1482;51.398;7.128;2023-10-31T14:09:57;5.27;;;3.40;;
2944;SDS011;1482;51.398;7.128;2023-10-31T14:12:24;5.53;;;2.50;;
2944;SDS011;1482;51.398;7.128;2023-10-31T14:14:50;3.03;;;2.13;;
2944;SDS011;1482;51.398;7.128;2023-10-31T14:17:16;3.33;;;2.23;;
2944;SDS011;1482;51.398;7.128;2023-10-31T14:19:42;2.30;;;2.10;;
2944;SDS011;1482;51.398;7.128;2023-10-31T14:22:08;6.33;;;2.30;;
2944;SDS011;1482;51.398;7.128;2023-10-31T14:24:33;2.57;;;2.37;;
2944;SDS011;1482;51.398;7.128;2023-10-31T14:27:00;2.50;;;2.30;;
2944;SDS011;1482;51.398;7.128;2023-10-31T14:29:26;3.73;;;2.40;;
2944;SDS011;1482;51.398;7.128;2023-10-31T14:31:51;7.67;;;3.30;;
2944;SDS011;1482;51.398;7.128;2023-10-31T14:34:19;3.93;;;2.57;;
2944;SDS011;1482;51.398;7.128;2023-10-31T14:36:47;13.00;;;2.90;;
2944;SDS011;1482;51.398;7.128;2023-10-31T14:39:13;3.20;;;2.90;;
2944;SDS011;1482;51.398;7.128;2023-10-31T14:41:39;3.90;;;2.83;;
2944;SDS011;1482;51.398;7.128;2023-10-31T14:44:05;3.17;;;2.40;;
2944;SDS011;1482;51.398;7.128;2023-10-31T14:46:30;4.20;;;2.23;;
2944;SDS011;1482;51.398;7.128;2023-10-31T14:48:57;2.90;;;2.60;;
2944;SDS011;1482;51.398;7.128;2023-10-31T14:51:23;2.60;;;2.40;;
2944;SDS011;1482;51.398;7.128;2023-10-31T14:53:49;4.03;;;2.20;;
2944;SDS011;1482;51.398;7.128;2023-10-31T14:56:15;3.50;;;2.80;;
2944;SDS011;1482;51.398;7.128;2023-10-31T14:58:41;5.60;;;2.60;;
2944;SDS011;1482;51.398;7.128;2023-10-31T15:01:06;4.30;;;2.80;;
2944;SDS011;1482;51.398;7.128;2023-10-31T15:03:32;2.10;;;1.90;;
2944;SDS011;1482;51.398;7.128;2023-10-31T15:05:58;2.20;;;2.10;;
2944;SDS011;1482;51.398;7.128;2023-10-31T15:08:23;2.33;;;2.13;;